createdAt,value
2019-04-30T00:01:36.159Z,6.03
2019-04-30T00:04:06.395Z,5.80
2019-04-30T00:06:39.341Z,6.93
2019-04-30T00:09:09.711Z,6.73
2019-04-30T00:11:37.393Z,7.27
2019-04-30T00:14:06.220Z,5.73
2019-04-30T00:16:36.199Z,5.10
2019-04-30T00:19:06.146Z,6.20
2019-04-30T00:21:36.119Z,5.47
2019-04-30T00:24:10.000Z,5.13
2019-04-30T00:26:35.616Z,6.40
2019-04-30T00:29:05.113Z,5.33
2019-04-30T00:31:35.016Z,5.33
2019-04-30T00:34:05.047Z,5.50
2019-04-30T00:36:37.257Z,6.13
2019-04-30T00:39:07.153Z,6.73
2019-04-30T00:41:39.939Z,7.73
2019-04-30T00:44:06.882Z,7.07
2019-04-30T00:46:36.478Z,6.67
2019-04-30T00:49:09.807Z,7.43
2019-04-30T00:51:35.888Z,6.47
2019-04-30T00:54:05.653Z,6.10
2019-04-30T00:56:35.512Z,6.70
2019-04-30T00:59:07.045Z,7.27
2019-04-30T01:01:43.484Z,6.97
2019-04-30T01:04:28.209Z,7.20
2019-04-30T01:07:00.284Z,7.20
2019-04-30T01:09:29.270Z,6.73
2019-04-30T01:11:57.996Z,7.50
2019-04-30T01:14:28.419Z,6.70
2019-04-30T01:16:59.293Z,7.60
2019-04-30T01:19:32.150Z,8.27
2019-04-30T01:21:59.445Z,8.10
2019-04-30T01:24:31.638Z,7.53
2019-04-30T01:27:06.698Z,7.03
2019-04-30T01:29:40.779Z,8.20
2019-04-30T01:32:03.456Z,8.67
2019-04-30T01:34:32.179Z,8.40
2019-04-30T01:37:00.941Z,7.30
2019-04-30T01:39:31.609Z,7.87
2019-04-30T01:42:02.999Z,7.70
2019-04-30T01:44:31.823Z,8.13
2019-04-30T01:47:00.557Z,7.40
2019-04-30T01:49:41.560Z,9.10
2019-04-30T01:52:00.970Z,9.77
2019-04-30T01:54:29.921Z,7.90
2019-04-30T01:57:19.314Z,6.70
2019-04-30T02:00:09.749Z,7.93
2019-04-30T02:02:39.915Z,8.10
2019-04-30T02:05:09.004Z,7.90
2019-04-30T02:07:40.148Z,8.60
2019-04-30T02:10:09.601Z,8.47
2019-04-30T02:12:39.259Z,7.77
2019-04-30T02:15:09.525Z,7.97
2019-04-30T02:17:38.913Z,8.80
2019-04-30T02:20:08.925Z,9.00
2019-04-30T02:22:38.946Z,9.27
2019-04-30T02:25:09.760Z,10.27
2019-04-30T02:27:39.070Z,10.40
2019-04-30T02:30:11.125Z,10.93
2019-04-30T02:32:40.438Z,9.93
2019-04-30T02:35:13.699Z,10.53
2019-04-30T02:38:01.303Z,10.17
2019-04-30T02:40:32.511Z,9.70
2019-04-30T02:43:02.093Z,9.50
2019-04-30T02:45:32.898Z,10.67
2019-04-30T02:48:03.487Z,9.10
2019-04-30T02:50:34.728Z,10.23
2019-04-30T02:53:05.756Z,9.23
2019-04-30T02:55:44.541Z,10.47
2019-04-30T02:58:13.445Z,12.47
2019-04-30T03:00:42.165Z,12.33
2019-04-30T03:03:10.887Z,12.23
2019-04-30T03:05:39.654Z,11.53
2019-04-30T03:08:09.663Z,11.30
2019-04-30T03:10:40.186Z,12.30
2019-04-30T03:13:09.856Z,13.07
2019-04-30T03:15:39.469Z,14.70
2019-04-30T03:18:13.032Z,13.20
2019-04-30T03:20:49.774Z,12.77
2019-04-30T03:23:19.549Z,12.63
2019-04-30T03:25:50.191Z,12.37
2019-04-30T03:28:20.233Z,12.50
2019-04-30T03:30:52.018Z,12.43
2019-04-30T03:33:22.943Z,11.80
2019-04-30T03:35:53.959Z,11.47
2019-04-30T03:38:21.587Z,11.30
2019-04-30T03:40:50.472Z,13.77
2019-04-30T03:43:20.387Z,12.83
2019-04-30T03:45:49.904Z,12.60
2019-04-30T03:48:20.025Z,13.90
2019-04-30T03:50:55.675Z,12.83
2019-04-30T03:53:20.208Z,12.73
2019-04-30T03:55:50.589Z,13.73
2019-04-30T03:58:21.169Z,12.73
2019-04-30T04:01:03.735Z,12.00
2019-04-30T04:03:34.154Z,13.87
2019-04-30T04:06:21.480Z,17.90
2019-04-30T04:09:01.027Z,16.73
2019-04-30T04:11:31.327Z,15.37
2019-04-30T04:14:00.044Z,15.30
2019-04-30T04:16:31.915Z,15.17
2019-04-30T04:18:59.457Z,12.27
2019-04-30T04:21:30.054Z,12.60
2019-04-30T04:24:00.203Z,12.70
2019-04-30T04:26:29.889Z,11.53
2019-04-30T04:28:59.441Z,12.33
2019-04-30T04:31:29.898Z,10.80
2019-04-30T04:34:00.073Z,9.90
2019-04-30T04:36:30.253Z,9.00
2019-04-30T04:39:00.417Z,9.53
2019-04-30T04:41:29.622Z,10.50
2019-04-30T04:44:00.206Z,8.93
2019-04-30T04:46:30.768Z,8.77
2019-04-30T04:48:59.767Z,7.80
2019-04-30T04:51:38.126Z,7.87
2019-04-30T04:54:00.148Z,7.10
2019-04-30T04:56:30.458Z,9.10
2019-04-30T04:59:00.233Z,8.03
2019-04-30T05:01:30.588Z,8.93
2019-04-30T05:03:59.313Z,10.30
2019-04-30T05:06:29.816Z,8.93
2019-04-30T05:08:59.177Z,8.73
2019-04-30T05:11:31.672Z,7.53
2019-04-30T05:13:59.914Z,7.70
2019-04-30T05:16:28.975Z,7.83
2019-04-30T05:18:58.655Z,8.00
2019-04-30T05:21:39.656Z,7.13
2019-04-30T05:23:59.080Z,7.20
2019-04-30T05:26:28.680Z,6.63
2019-04-30T05:28:59.171Z,6.30
2019-04-30T05:31:28.943Z,6.90
2019-04-30T05:33:58.721Z,6.53
2019-04-30T05:36:29.210Z,6.60
2019-04-30T05:38:58.749Z,6.07
2019-04-30T05:41:28.980Z,6.57
2019-04-30T05:43:59.125Z,7.10
2019-04-30T05:46:29.826Z,6.57
2019-04-30T05:48:59.436Z,7.33
2019-04-30T05:51:28.906Z,7.00
2019-04-30T05:53:59.264Z,6.37
2019-04-30T05:56:30.205Z,6.20
2019-04-30T05:58:59.310Z,6.33
2019-04-30T06:01:29.539Z,7.97
2019-04-30T06:03:59.443Z,6.77
2019-04-30T06:06:29.000Z,6.67
2019-04-30T06:09:14.766Z,6.60
2019-04-30T06:11:52.826Z,7.27
2019-04-30T06:14:47.992Z,7.53
2019-04-30T06:17:09.277Z,7.03
2019-04-30T06:19:39.148Z,7.37
2019-04-30T06:22:10.850Z,6.97
2019-04-30T06:24:39.552Z,7.33
2019-04-30T06:27:10.581Z,7.30
2019-04-30T06:29:39.660Z,6.63
2019-04-30T06:32:08.783Z,7.10
2019-04-30T06:34:41.835Z,6.27
2019-04-30T06:37:10.220Z,6.77
2019-04-30T06:39:38.947Z,5.70
2019-04-30T06:42:12.451Z,6.30
2019-04-30T06:44:41.863Z,7.40
2019-04-30T06:47:09.801Z,6.70
2019-04-30T06:49:39.376Z,6.40
2019-04-30T06:52:18.180Z,6.60
2019-04-30T06:54:39.787Z,5.87
2019-04-30T06:57:09.682Z,5.50
2019-04-30T06:59:39.731Z,5.77
2019-04-30T07:02:09.262Z,5.73
2019-04-30T07:04:40.025Z,5.50
2019-04-30T07:07:09.245Z,5.53
2019-04-30T07:09:55.922Z,5.67
2019-04-30T07:12:27.839Z,5.60
2019-04-30T07:14:54.266Z,6.07
2019-04-30T07:17:22.988Z,7.23
2019-04-30T07:19:56.536Z,5.60
2019-04-30T07:22:36.728Z,5.60
2019-04-30T07:24:52.708Z,6.23
2019-04-30T07:27:24.117Z,5.90
2019-04-30T07:29:52.049Z,5.67
2019-04-30T07:32:20.773Z,5.30
2019-04-30T07:34:49.940Z,5.57
2019-04-30T07:37:24.202Z,5.40
2019-04-30T07:39:49.455Z,5.60
2019-04-30T07:42:19.223Z,4.90
2019-04-30T07:44:50.246Z,4.37
2019-04-30T07:47:19.518Z,4.47
2019-04-30T07:49:52.967Z,4.63
2019-04-30T07:52:21.559Z,4.67
2019-04-30T07:54:51.876Z,3.90
2019-04-30T07:57:20.599Z,4.27
2019-04-30T07:59:49.840Z,5.07
2019-04-30T08:02:20.873Z,4.10
2019-04-30T08:04:51.319Z,4.97
2019-04-30T08:07:20.648Z,4.67
2019-04-30T08:09:49.576Z,4.53
2019-04-30T08:12:26.033Z,4.30
2019-04-30T08:14:50.187Z,11.70
2019-04-30T08:17:19.004Z,5.73
2019-04-30T08:19:48.965Z,5.03
2019-04-30T08:22:19.677Z,4.13
2019-04-30T08:24:49.178Z,4.10
2019-04-30T08:27:19.632Z,6.27
2019-04-30T08:29:49.937Z,4.80
2019-04-30T08:32:19.179Z,4.10
2019-04-30T08:34:50.116Z,4.47
2019-04-30T08:37:20.251Z,4.40
2019-04-30T08:39:49.685Z,4.93
2019-04-30T08:42:28.991Z,4.70
2019-04-30T08:44:49.279Z,3.90
2019-04-30T08:47:18.818Z,4.10
2019-04-30T08:49:50.017Z,4.33
2019-04-30T08:52:19.793Z,4.20
2019-04-30T08:54:49.599Z,3.90
2019-04-30T08:57:19.197Z,3.97
2019-04-30T08:59:49.470Z,3.63
2019-04-30T09:02:19.687Z,3.50
2019-04-30T09:04:50.286Z,4.07
2019-04-30T09:07:19.724Z,7.47
2019-04-30T09:09:48.915Z,7.23
2019-04-30T09:12:19.632Z,4.43
2019-04-30T09:14:49.104Z,3.60
2019-04-30T09:17:19.913Z,3.73
2019-04-30T09:19:49.125Z,4.87
2019-04-30T09:22:19.517Z,3.33
2019-04-30T09:24:49.678Z,3.20
2019-04-30T09:27:19.555Z,3.27
2019-04-30T09:29:49.202Z,3.17
2019-04-30T09:32:19.291Z,2.50
2019-04-30T09:34:48.933Z,3.13
2019-04-30T09:37:18.756Z,3.37
2019-04-30T09:39:49.430Z,3.57
2019-04-30T09:42:19.462Z,3.17
2019-04-30T09:44:49.233Z,3.60
2019-04-30T09:47:20.057Z,3.90
2019-04-30T09:49:49.406Z,3.40
2019-04-30T09:52:19.301Z,3.10
2019-04-30T09:54:50.084Z,3.33
2019-04-30T09:57:19.444Z,3.50
2019-04-30T09:59:48.697Z,3.27
2019-04-30T10:02:19.159Z,3.03
2019-04-30T10:04:49.761Z,2.63
2019-04-30T10:07:19.499Z,2.80
2019-04-30T10:09:50.664Z,2.67
2019-04-30T10:12:19.666Z,2.57
2019-04-30T10:14:49.502Z,3.70
2019-04-30T10:17:22.846Z,2.30
2019-04-30T10:19:51.720Z,2.43
2019-04-30T10:22:20.441Z,2.20
2019-04-30T10:24:49.509Z,2.30
2019-04-30T10:27:19.156Z,2.13
2019-04-30T10:29:49.354Z,2.30
2019-04-30T10:32:18.747Z,2.47
2019-04-30T10:34:47.951Z,2.47
2019-04-30T10:37:18.752Z,1.70
2019-04-30T10:39:48.998Z,4.07
2019-04-30T10:42:17.700Z,2.70
2019-04-30T10:44:46.416Z,2.73
2019-04-30T10:47:15.830Z,2.40
2019-04-30T10:49:44.670Z,2.03
2019-04-30T10:52:13.394Z,2.30
2019-04-30T10:54:42.115Z,2.10
2019-04-30T10:57:10.864Z,2.70
2019-04-30T10:59:39.678Z,2.20
2019-04-30T11:02:09.081Z,2.67
2019-04-30T11:04:39.609Z,2.03
2019-04-30T11:07:08.718Z,2.30
2019-04-30T11:09:39.379Z,2.23
2019-04-30T11:12:09.458Z,2.23
2019-04-30T11:14:38.357Z,2.80
2019-04-30T11:17:09.643Z,2.10
2019-04-30T11:19:39.058Z,2.57
2019-04-30T11:22:08.200Z,4.77
2019-04-30T11:24:53.394Z,2.40
2019-04-30T11:27:10.165Z,3.50
2019-04-30T11:29:39.379Z,2.40
2019-04-30T11:32:12.556Z,1.80
2019-04-30T11:34:41.644Z,2.30
2019-04-30T11:37:10.354Z,2.13
2019-04-30T11:39:39.080Z,2.40
2019-04-30T11:42:07.878Z,2.30
2019-04-30T11:44:38.665Z,2.50
2019-04-30T11:47:09.968Z,2.30
2019-04-30T11:49:39.527Z,2.17
2019-04-30T11:52:08.344Z,2.20
2019-04-30T11:54:48.755Z,2.13
2019-04-30T11:57:08.929Z,2.33
2019-04-30T11:59:39.536Z,2.20
2019-04-30T12:02:10.135Z,2.20
2019-04-30T12:04:39.424Z,2.10
2019-04-30T12:07:18.792Z,2.40
2019-04-30T12:09:53.110Z,2.07
2019-04-30T12:12:21.826Z,2.10
2019-04-30T12:14:50.543Z,1.90
2019-04-30T12:17:19.298Z,2.30
2019-04-30T12:19:48.861Z,2.10
2019-04-30T12:22:20.014Z,2.30
2019-04-30T12:24:48.880Z,2.10
2019-04-30T12:27:18.773Z,2.40
2019-04-30T12:29:49.470Z,2.13
2019-04-30T12:32:19.217Z,3.33
2019-04-30T12:34:48.489Z,2.27
2019-04-30T12:37:18.992Z,2.90
2019-04-30T12:39:49.164Z,3.30
2019-04-30T12:42:18.856Z,3.70
2019-04-30T12:44:49.440Z,3.47
2019-04-30T12:47:21.763Z,2.33
2019-04-30T12:49:53.443Z,2.90
2019-04-30T12:52:29.889Z,3.07
2019-04-30T12:55:15.145Z,3.20
2019-04-30T12:57:41.303Z,4.00
2019-04-30T13:00:11.931Z,2.87
2019-04-30T13:02:40.656Z,2.57
2019-04-30T13:05:10.790Z,2.87
2019-04-30T13:07:40.410Z,2.80
2019-04-30T13:10:09.994Z,2.90
2019-04-30T13:12:39.732Z,3.17
2019-04-30T13:15:10.886Z,3.97
2019-04-30T13:17:39.661Z,3.10
2019-04-30T13:20:18.615Z,3.20
2019-04-30T13:22:39.343Z,3.43
2019-04-30T13:25:09.526Z,2.50
2019-04-30T13:27:39.871Z,2.63
2019-04-30T13:30:11.366Z,2.77
2019-04-30T13:32:41.657Z,2.23
2019-04-30T13:35:11.331Z,3.53
2019-04-30T13:37:41.620Z,2.40
2019-04-30T13:40:12.114Z,2.00
2019-04-30T13:42:42.526Z,2.13
2019-04-30T13:45:11.440Z,1.87
2019-04-30T13:47:40.157Z,2.60
2019-04-30T13:50:10.078Z,2.07
2019-04-30T13:52:39.036Z,2.03
2019-04-30T13:55:10.730Z,2.10
2019-04-30T13:57:39.288Z,2.37
2019-04-30T14:00:12.247Z,1.93
2019-04-30T14:02:44.800Z,2.63
2019-04-30T14:05:14.730Z,2.00
2019-04-30T14:07:57.059Z,2.23
2019-04-30T14:10:25.982Z,2.00
2019-04-30T14:12:56.266Z,2.33
2019-04-30T14:15:25.373Z,1.93
2019-04-30T14:17:54.224Z,2.10
2019-04-30T14:20:23.119Z,2.30
2019-04-30T14:22:51.993Z,2.13
2019-04-30T14:25:20.706Z,2.20
2019-04-30T14:27:54.530Z,1.90
2019-04-30T14:30:20.805Z,1.80
2019-04-30T14:32:50.757Z,2.20
2019-04-30T14:35:19.625Z,2.07
2019-04-30T14:37:54.577Z,2.17
2019-04-30T14:40:24.138Z,2.63
2019-04-30T14:43:02.156Z,1.87
2019-04-30T14:45:42.299Z,1.50
2019-04-30T14:48:23.743Z,1.97
2019-04-30T14:50:52.746Z,1.50
2019-04-30T14:53:30.524Z,1.90
2019-04-30T14:56:08.884Z,1.90
2019-04-30T14:58:50.055Z,2.17
2019-04-30T15:01:20.347Z,1.80
2019-04-30T15:03:49.542Z,3.07
2019-04-30T15:06:19.410Z,2.10
2019-04-30T15:08:49.502Z,2.17
2019-04-30T15:11:19.053Z,2.50
2019-04-30T15:13:49.420Z,2.10
2019-04-30T15:16:18.224Z,2.20
2019-04-30T15:18:46.941Z,1.70
2019-04-30T15:21:15.813Z,1.90
2019-04-30T15:23:58.548Z,1.73
2019-04-30T15:26:25.205Z,1.70
2019-04-30T15:28:54.150Z,2.00
2019-04-30T15:31:22.868Z,2.37
2019-04-30T15:34:02.561Z,4.17
2019-04-30T15:36:26.504Z,1.57
2019-04-30T15:38:56.796Z,1.43
2019-04-30T15:41:25.771Z,2.10
2019-04-30T15:43:54.486Z,2.50
2019-04-30T15:46:23.507Z,1.43
2019-04-30T15:48:52.372Z,1.00
2019-04-30T15:51:31.483Z,1.17
2019-04-30T15:54:01.255Z,1.30
2019-04-30T15:56:37.132Z,1.13
2019-04-30T15:59:18.971Z,1.20
2019-04-30T16:01:55.185Z,0.90
2019-04-30T16:04:38.498Z,0.80
2019-04-30T16:07:08.487Z,1.20
2019-04-30T16:09:38.851Z,0.87
2019-04-30T16:12:20.103Z,1.30
2019-04-30T16:14:48.596Z,1.17
2019-04-30T16:17:20.591Z,0.90
2019-04-30T16:19:49.527Z,0.83
2019-04-30T16:22:19.221Z,0.90
2019-04-30T16:24:49.603Z,0.70
2019-04-30T16:27:19.159Z,0.90
2019-04-30T16:29:49.807Z,1.13
2019-04-30T16:32:19.267Z,1.30
2019-04-30T16:34:49.846Z,1.10
2019-04-30T16:37:20.243Z,0.87
2019-04-30T16:39:49.071Z,1.57
2019-04-30T16:42:19.052Z,1.10
2019-04-30T16:44:48.030Z,1.20
2019-04-30T16:47:17.194Z,1.00
2019-04-30T16:49:46.058Z,1.07
2019-04-30T16:52:14.811Z,1.40
2019-04-30T16:54:43.526Z,1.30
2019-04-30T16:57:12.309Z,1.40
2019-04-30T16:59:42.340Z,1.10
2019-04-30T17:02:11.845Z,1.23
2019-04-30T17:04:57.527Z,1.00
2019-04-30T17:07:30.887Z,1.30
2019-04-30T17:10:10.060Z,1.20
2019-04-30T17:12:43.100Z,1.10
2019-04-30T17:15:25.625Z,1.13
2019-04-30T17:17:54.360Z,1.10
2019-04-30T17:20:23.088Z,2.00
2019-04-30T17:22:52.145Z,2.67
2019-04-30T17:25:20.836Z,1.50
2019-04-30T17:27:49.553Z,1.60
2019-04-30T17:30:19.696Z,3.23
2019-04-30T17:32:49.869Z,2.37
2019-04-30T17:35:19.103Z,3.27
2019-04-30T17:37:48.058Z,3.07
2019-04-30T17:40:19.102Z,2.80
2019-04-30T17:42:47.551Z,1.77
2019-04-30T17:45:19.379Z,2.93
2019-04-30T17:47:47.921Z,1.73
2019-04-30T17:50:18.600Z,2.20
2019-04-30T17:52:47.235Z,1.23
2019-04-30T17:55:15.960Z,2.37
2019-04-30T17:57:44.688Z,1.10
2019-04-30T18:00:19.372Z,1.13
2019-04-30T18:02:45.412Z,1.30
2019-04-30T18:05:14.130Z,1.37
2019-04-30T18:07:42.897Z,1.20
2019-04-30T18:10:13.207Z,0.90
2019-04-30T18:12:41.930Z,0.80
2019-04-30T18:15:15.854Z,1.27
2019-04-30T18:17:46.234Z,1.27
2019-04-30T18:20:32.365Z,1.60
2019-04-30T18:23:18.750Z,1.00
2019-04-30T18:25:52.881Z,1.10
2019-04-30T18:28:21.595Z,1.20
2019-04-30T18:30:50.421Z,1.00
2019-04-30T18:33:20.089Z,2.10
2019-04-30T18:35:48.819Z,2.20
2019-04-30T18:38:17.850Z,1.60
2019-04-30T18:40:49.557Z,1.20
2019-04-30T18:43:20.539Z,1.10
2019-04-30T18:45:49.484Z,1.20
2019-04-30T18:48:19.531Z,2.23
2019-04-30T18:50:48.503Z,1.27
2019-04-30T18:53:18.742Z,0.90
2019-04-30T18:55:50.521Z,0.80
2019-04-30T18:58:19.999Z,1.07
2019-04-30T19:00:49.473Z,1.33
2019-04-30T19:03:21.767Z,0.93
2019-04-30T19:05:51.228Z,1.37
2019-04-30T19:08:21.528Z,1.20
2019-04-30T19:11:08.995Z,1.10
2019-04-30T19:13:56.221Z,1.10
2019-04-30T19:16:29.533Z,1.03
2019-04-30T19:19:00.978Z,1.10
2019-04-30T19:21:29.817Z,1.13
2019-04-30T19:23:59.496Z,1.00
2019-04-30T19:26:29.296Z,1.00
2019-04-30T19:28:58.083Z,1.00
2019-04-30T19:31:29.549Z,0.90
2019-04-30T19:33:58.853Z,0.80
2019-04-30T19:36:35.899Z,1.07
2019-04-30T19:38:59.789Z,1.10
2019-04-30T19:41:28.830Z,1.10
2019-04-30T19:43:57.602Z,1.17
2019-04-30T19:46:26.355Z,1.10
2019-04-30T19:48:55.071Z,1.20
2019-04-30T19:51:23.798Z,2.53
2019-04-30T19:53:52.679Z,1.23
2019-04-30T19:56:21.395Z,1.10
2019-04-30T19:59:01.457Z,1.17
2019-04-30T20:01:20.723Z,1.37
2019-04-30T20:03:49.438Z,0.90
2019-04-30T20:06:19.148Z,1.20
2019-04-30T20:08:48.220Z,0.90
2019-04-30T20:11:16.960Z,0.83
2019-04-30T20:13:45.665Z,1.10
2019-04-30T20:16:14.456Z,1.00
2019-04-30T20:18:43.186Z,1.97
2019-04-30T20:21:25.334Z,1.50
2019-04-30T20:23:46.879Z,0.90
2019-04-30T20:26:15.581Z,1.03
2019-04-30T20:28:44.393Z,1.10
2019-04-30T20:31:13.372Z,0.93
2019-04-30T20:33:42.090Z,1.77
2019-04-30T20:36:10.808Z,1.90
2019-04-30T20:38:41.329Z,1.37
2019-04-30T20:41:10.983Z,1.30
2019-04-30T20:43:39.734Z,1.60
2019-04-30T20:46:08.759Z,1.30
2019-04-30T20:48:39.306Z,1.20
2019-04-30T20:51:09.543Z,1.37
2019-04-30T20:53:39.054Z,0.87
2019-04-30T20:56:09.305Z,1.00
2019-04-30T20:58:39.075Z,1.23
2019-04-30T21:01:09.635Z,1.30
2019-04-30T21:03:39.550Z,1.23
2019-04-30T21:06:08.861Z,1.10
2019-04-30T21:08:37.877Z,1.90
2019-04-30T21:11:06.598Z,1.17
2019-04-30T21:13:35.311Z,1.20
2019-04-30T21:16:04.203Z,1.00
2019-04-30T21:18:32.921Z,2.13
2019-04-30T21:21:01.632Z,1.50
2019-04-30T21:23:30.438Z,1.80
2019-04-30T21:25:59.168Z,1.10
2019-04-30T21:28:29.749Z,1.43
2019-04-30T21:31:00.872Z,1.13
2019-04-30T21:33:49.261Z,1.43
2019-04-30T21:36:19.195Z,1.30
2019-04-30T21:38:49.032Z,1.53
2019-04-30T21:41:19.530Z,1.50
2019-04-30T21:43:48.516Z,1.30
2019-04-30T21:46:19.075Z,1.57
2019-04-30T21:48:48.788Z,1.43
2019-04-30T21:51:19.276Z,1.67
2019-04-30T21:53:50.320Z,1.37
2019-04-30T21:56:18.565Z,1.57
2019-04-30T21:58:48.259Z,1.47
2019-04-30T22:01:18.647Z,1.47
2019-04-30T22:03:47.774Z,1.50
2019-04-30T22:06:16.564Z,1.63
2019-04-30T22:08:45.271Z,1.40
2019-04-30T22:11:19.838Z,1.53
2019-04-30T22:13:54.850Z,1.27
2019-04-30T22:16:26.590Z,1.40
2019-04-30T22:18:55.304Z,1.70
2019-04-30T22:21:24.172Z,2.73
2019-04-30T22:23:52.891Z,2.37
2019-04-30T22:26:21.608Z,3.20
2019-04-30T22:28:50.483Z,3.70
2019-04-30T22:31:19.768Z,2.63
2019-04-30T22:33:49.117Z,2.27
2019-04-30T22:36:25.729Z,1.60
2019-04-30T22:38:56.024Z,1.70
2019-04-30T22:41:29.798Z,1.50
2019-04-30T22:43:58.533Z,1.90
2019-04-30T22:46:29.252Z,1.57
2019-04-30T22:48:57.738Z,1.10
2019-04-30T22:51:26.532Z,1.37
2019-04-30T22:53:55.244Z,1.67
2019-04-30T22:56:24.022Z,1.57
2019-04-30T22:58:52.734Z,1.60
2019-04-30T23:01:25.773Z,1.27
2019-04-30T23:03:59.014Z,1.10
2019-04-30T23:06:27.739Z,1.13
2019-04-30T23:08:56.446Z,1.00
2019-04-30T23:11:26.460Z,1.20
2019-04-30T23:13:55.178Z,1.27
2019-04-30T23:16:23.897Z,1.00
2019-04-30T23:18:53.472Z,1.37
2019-04-30T23:21:22.188Z,1.10
2019-04-30T23:23:50.904Z,1.10
2019-04-30T23:26:19.682Z,1.27
2019-04-30T23:28:48.406Z,1.67
2019-04-30T23:31:17.119Z,1.13
2019-04-30T23:33:45.876Z,1.07
2019-04-30T23:36:14.658Z,1.07
2019-04-30T23:38:43.372Z,1.40
2019-04-30T23:41:12.327Z,1.50
2019-04-30T23:43:41.046Z,1.60
2019-04-30T23:46:09.755Z,1.27
2019-04-30T23:48:38.626Z,1.17
2019-04-30T23:51:07.338Z,1.30
2019-04-30T23:53:36.059Z,1.20
2019-04-30T23:56:05.085Z,1.13
2019-04-30T23:58:33.795Z,1.10
